Time;durP1;ratioP1;P1;durP2;ratioP2;P2;SDS_P1;SDS_P2;PMS_P1;PMS_P2;Temp;Humidity;BMP_temperature;BMP_pressure;BME280_temperature;BME280_humidity;BME280_pressure;Samples;Min_cycle;Max_cycle;Signal;HPM_P1;HPM_P2
2022/04/17 00:01:20;;;;;;;7.55;5.82;;;;;;;;;;4941788;29;20062;-65
2022/04/17 00:03:49;;;;;;;8.00;5.43;;;;;;;;;;4932253;28;20522;-65
2022/04/17 00:06:18;;;;;;;8.35;5.43;;;;;;;;;;4924857;29;20062;-65
2022/04/17 00:08:47;;;;;;;6.85;4.22;;;;;;;;;;4925642;29;20452;-65
2022/04/17 00:11:17;;;;;;;7.75;5.00;;;;;;;;;;4921729;29;20044;-65
2022/04/17 00:13:48;;;;;;;9.63;5.65;;;;;;;;;;4922176;29;20060;-64
2022/04/17 00:16:19;;;;;;;5.68;4.30;;;;;;;;;;4940318;29;20052;-65
2022/04/17 00:18:47;;;;;;;5.75;4.45;;;;;;;;;;4931207;29;20060;-65
2022/04/17 00:21:17;;;;;;;7.10;4.85;;;;;;;;;;4938634;29;20047;-64
2022/04/17 00:23:47;;;;;;;9.52;4.82;;;;;;;;;;4930200;29;20555;-65
2022/04/17 00:26:20;;;;;;;5.95;4.43;;;;;;;;;;4929663;29;20064;-65
2022/04/17 00:28:49;;;;;;;8.13;5.03;;;;;;;;;;4929268;29;20059;-66
2022/04/17 00:31:17;;;;;;;4.95;3.88;;;;;;;;;;4927371;29;20116;-66
2022/04/17 00:33:46;;;;;;;7.00;4.40;;;;;;;;;;4929729;29;20056;-66
2022/04/17 00:36:15;;;;;;;8.40;4.20;;;;;;;;;;4926947;29;20516;-66
2022/04/17 00:38:44;;;;;;;5.25;4.15;;;;;;;;;;4922232;29;20063;-65
2022/04/17 00:41:14;;;;;;;4.00;3.13;;;;;;;;;;4921314;29;20070;-65
2022/04/17 00:43:47;;;;;;;5.53;3.97;;;;;;;;;;4924843;29;20052;-65
2022/04/17 00:46:16;;;;;;;5.03;3.67;;;;;;;;;;4924233;29;20107;-65
2022/04/17 00:48:47;;;;;;;5.85;3.67;;;;;;;;;;4923346;29;20135;-65
2022/04/17 00:51:17;;;;;;;6.55;4.25;;;;;;;;;;4921064;29;20120;-65
2022/04/17 00:53:52;;;;;;;5.27;3.43;;;;;;;;;;4919349;29;20052;-65
2022/04/17 00:56:24;;;;;;;4.93;4.15;;;;;;;;;;4920673;29;20100;-65
2022/04/17 00:58:54;;;;;;;5.93;3.60;;;;;;;;;;4919079;29;20055;-64
2022/04/17 01:01:23;;;;;;;6.35;4.63;;;;;;;;;;4934273;29;20051;-65
2022/04/17 01:03:55;;;;;;;6.90;4.70;;;;;;;;;;4936513;29;20056;-65
2022/04/17 01:06:28;;;;;;;5.07;2.72;;;;;;;;;;4936670;29;20528;-65
2022/04/17 01:09:00;;;;;;;4.32;2.22;;;;;;;;;;4936902;29;20048;-65
2022/04/17 01:11:33;;;;;;;4.28;2.10;;;;;;;;;;4924130;29;20055;-65
2022/04/17 01:14:08;;;;;;;4.00;2.25;;;;;;;;;;4918269;29;20468;-65
2022/04/17 01:16:39;;;;;;;3.35;2.33;;;;;;;;;;4918353;29;20067;-65
2022/04/17 01:19:12;;;;;;;2.08;1.90;;;;;;;;;;4928883;29;20059;-65
2022/04/17 01:21:43;;;;;;;2.50;1.52;;;;;;;;;;4918167;29;20055;-65
2022/04/17 01:27:02;;;;;;;4.13;1.70;;;;;;;;;;4917877;29;20040;-65
2022/04/17 01:29:36;;;;;;;2.63;2.15;;;;;;;;;;4918350;29;20104;-65
2022/04/17 01:32:09;;;;;;;4.60;1.80;;;;;;;;;;4917956;29;20064;-65
2022/04/17 01:34:37;;;;;;;3.20;1.42;;;;;;;;;;4918394;29;20078;-65
2022/04/17 01:37:06;;;;;;;2.05;1.42;;;;;;;;;;4916946;29;20063;-65
2022/04/17 01:39:37;;;;;;;4.15;1.27;;;;;;;;;;4933080;29;20071;-65
2022/04/17 01:42:06;;;;;;;1.85;1.48;;;;;;;;;;4936007;29;20532;-65
2022/04/17 01:44:36;;;;;;;8.80;1.70;;;;;;;;;;4936222;29;20103;-65
2022/04/17 01:47:06;;;;;;;1.75;1.65;;;;;;;;;;4936379;29;20059;-65
2022/04/17 01:49:37;;;;;;;2.00;1.65;;;;;;;;;;4935711;29;20059;-65
2022/04/17 01:52:09;;;;;;;4.35;1.83;;;;;;;;;;4935899;29;20778;-65
2022/04/17 01:54:39;;;;;;;4.75;1.40;;;;;;;;;;4935533;29;20092;-65
2022/04/17 01:57:09;;;;;;;8.68;2.35;;;;;;;;;;4935904;29;20090;-65
2022/04/17 01:59:38;;;;;;;3.30;1.58;;;;;;;;;;4935730;29;20456;-65
2022/04/17 02:02:07;;;;;;;3.42;1.80;;;;;;;;;;4917704;29;20044;-65
2022/04/17 02:04:38;;;;;;;4.97;1.92;;;;;;;;;;4917533;29;20056;-65
2022/04/17 02:07:08;;;;;;;1.60;1.48;;;;;;;;;;4917349;29;20463;-65
2022/04/17 02:09:38;;;;;;;4.70;1.98;;;;;;;;;;4917400;29;20487;-65
2022/04/17 02:12:08;;;;;;;3.97;1.80;;;;;;;;;;4929538;29;20051;-65
2022/04/17 02:14:37;;;;;;;3.70;1.88;;;;;;;;;;4935485;29;20844;-65
2022/04/17 02:17:05;;;;;;;2.30;2.00;;;;;;;;;;4934937;29;20059;-65
2022/04/17 02:19:35;;;;;;;3.00;2.45;;;;;;;;;;4935385;29;20103;-65
2022/04/17 02:22:04;;;;;;;5.50;2.10;;;;;;;;;;4935255;29;20574;-65
2022/04/17 02:24:35;;;;;;;5.18;2.28;;;;;;;;;;4936091;29;20060;-66
2022/04/17 02:27:04;;;;;;;4.13;2.20;;;;;;;;;;4935046;29;20471;-65
2022/04/17 02:29:33;;;;;;;6.95;1.98;;;;;;;;;;4935252;29;20047;-65
2022/04/17 02:32:03;;;;;;;5.80;1.85;;;;;;;;;;4935486;29;20063;-65
2022/04/17 02:34:33;;;;;;;5.47;1.83;;;;;;;;;;4935386;29;20059;-66
2022/04/17 02:37:04;;;;;;;3.60;1.60;;;;;;;;;;4935408;29;20075;-65
2022/04/17 02:39:35;;;;;;;6.07;2.00;;;;;;;;;;4935384;29;20500;-65
2022/04/17 02:42:04;;;;;;;4.55;1.90;;;;;;;;;;4935100;29;20071;-65
2022/04/17 02:44:33;;;;;;;4.20;2.67;;;;;;;;;;4934926;29;20423;-65
2022/04/17 02:49:48;;;;;;;6.53;2.75;;;;;;;;;;4934921;29;20098;-65
2022/04/17 02:52:17;;;;;;;2.28;2.05;;;;;;;;;;4935443;29;20463;-65
2022/04/17 02:54:46;;;;;;;3.80;2.55;;;;;;;;;;4934848;29;20122;-65
2022/04/17 02:57:15;;;;;;;10.65;2.50;;;;;;;;;;4934730;29;20115;-65
2022/04/17 02:59:44;;;;;;;4.18;2.17;;;;;;;;;;4934805;29;20064;-65
2022/04/17 03:07:47;;;;;;;5.72;2.05;;;;;;;;;;4935164;29;20078;-64
2022/04/17 03:10:18;;;;;;;4.63;2.38;;;;;;;;;;4934683;29;20535;-65
2022/04/17 03:12:46;;;;;;;7.07;2.22;;;;;;;;;;4932791;29;20465;-65
2022/04/17 03:15:15;;;;;;;1.80;1.70;;;;;;;;;;4916318;29;20064;-65
2022/04/17 03:17:44;;;;;;;4.80;1.88;;;;;;;;;;4916455;29;20059;-65
2022/04/17 03:20:12;;;;;;;7.18;2.08;;;;;;;;;;4925011;29;21086;-65
2022/04/17 03:22:42;;;;;;;4.45;2.20;;;;;;;;;;4934894;29;20083;-65
2022/04/17 03:25:11;;;;;;;4.15;2.47;;;;;;;;;;4934354;29;20056;-65
2022/04/17 03:27:43;;;;;;;2.90;1.88;;;;;;;;;;4934431;29;20064;-65
2022/04/17 03:30:11;;;;;;;4.78;2.78;;;;;;;;;;4934327;29;20059;-65
2022/04/17 03:32:47;;;;;;;6.78;2.72;;;;;;;;;;4934401;29;20095;-65
2022/04/17 03:35:23;;;;;;;9.73;2.05;;;;;;;;;;4935045;29;20056;-65
2022/04/17 03:37:53;;;;;;;9.45;2.38;;;;;;;;;;4928227;29;20681;-65
2022/04/17 03:40:22;;;;;;;21.38;2.63;;;;;;;;;;4934786;29;20063;-65
2022/04/17 03:42:50;;;;;;;8.02;4.25;;;;;;;;;;4934100;29;20479;-65
2022/04/17 03:45:19;;;;;;;13.93;4.25;;;;;;;;;;4934568;29;20055;-65
2022/04/17 03:47:48;;;;;;;3.10;2.67;;;;;;;;;;4926937;29;20119;-65
2022/04/17 03:50:18;;;;;;;9.18;2.95;;;;;;;;;;4929767;29;20051;-65
2022/04/17 03:52:48;;;;;;;7.75;2.50;;;;;;;;;;4934163;29;20052;-65
2022/04/17 03:55:16;;;;;;;10.10;3.05;;;;;;;;;;4934058;29;20055;-65
2022/04/17 03:57:45;;;;;;;10.73;3.38;;;;;;;;;;4933862;29;20403;-65
2022/04/17 04:00:16;;;;;;;7.82;2.53;;;;;;;;;;4934408;29;20063;-65
2022/04/17 04:02:51;;;;;;;14.10;2.45;;;;;;;;;;4934300;29;20139;-64
2022/04/17 04:05:20;;;;;;;9.75;2.45;;;;;;;;;;4934117;29;20063;-64
2022/04/17 04:07:49;;;;;;;4.45;3.00;;;;;;;;;;4934503;29;20080;-64
2022/04/17 04:10:19;;;;;;;8.63;3.97;;;;;;;;;;4934315;29;20059;-64
2022/04/17 04:12:48;;;;;;;11.18;2.80;;;;;;;;;;4934456;29;20047;-65
2022/04/17 04:15:17;;;;;;;18.52;3.20;;;;;;;;;;4934176;29;20136;-64
2022/04/17 04:17:46;;;;;;;8.82;2.95;;;;;;;;;;4934347;29;20056;-64
2022/04/17 04:20:15;;;;;;;10.20;3.22;;;;;;;;;;4933585;29;20058;-63
2022/04/17 04:22:45;;;;;;;10.52;2.80;;;;;;;;;;4934021;29;20107;-64
2022/04/17 04:25:12;;;;;;;14.95;3.92;;;;;;;;;;4915781;29;20052;-65
2022/04/17 04:30:30;;;;;;;12.27;2.72;;;;;;;;;;4915423;29;20080;-65
2022/04/17 04:32:59;;;;;;;3.00;2.08;;;;;;;;;;4917584;29;20487;-64
2022/04/17 04:35:29;;;;;;;11.63;2.97;;;;;;;;;;4933473;29;20086;-65
2022/04/17 04:38:00;;;;;;;14.82;3.38;;;;;;;;;;4936241;29;20471;-64
2022/04/17 04:40:32;;;;;;;22.75;5.88;;;;;;;;;;4938246;29;20514;-64
2022/04/17 04:43:01;;;;;;;8.35;3.92;;;;;;;;;;4939817;29;20058;-65
2022/04/17 04:49:29;;;;;;;17.02;4.13;;;;;;;;;;4933931;29;20052;-65
2022/04/17 04:51:08;;;;;;;19.25;3.22;;;;;;;;;;4921133;29;20056;-65
2022/04/17 04:53:37;;;;;;;9.93;3.55;;;;;;;;;;4920830;29;20051;-66
2022/04/17 04:56:06;;;;;;;11.43;4.05;;;;;;;;;;4921041;29;20048;-66
2022/04/17 04:58:36;;;;;;;13.35;3.28;;;;;;;;;;4931679;29;20044;-66
2022/04/17 05:01:04;;;;;;;12.93;3.28;;;;;;;;;;4939398;29;20091;-66
2022/04/17 05:03:34;;;;;;;20.98;4.43;;;;;;;;;;4933842;29;20048;-66
2022/04/17 05:06:04;;;;;;;10.05;3.35;;;;;;;;;;4921218;29;20052;-66
2022/04/17 05:08:35;;;;;;;11.43;3.55;;;;;;;;;;4921180;29;20076;-65
2022/04/17 05:11:04;;;;;;;19.77;4.95;;;;;;;;;;4927326;29;20056;-65
2022/04/17 05:13:34;;;;;;;20.10;5.15;;;;;;;;;;4939356;29;20048;-64
2022/04/17 05:16:06;;;;;;;9.15;2.60;;;;;;;;;;4921410;29;20056;-64
2022/04/17 05:18:34;;;;;;;12.07;2.50;;;;;;;;;;4921282;29;20075;-65
2022/04/17 05:21:06;;;;;;;21.15;2.85;;;;;;;;;;4920562;29;20115;-64
2022/04/17 05:23:36;;;;;;;13.68;3.97;;;;;;;;;;4920979;29;20082;-64
2022/04/17 05:26:05;;;;;;;7.28;3.50;;;;;;;;;;4930388;29;20056;-65
2022/04/17 05:28:35;;;;;;;13.23;3.42;;;;;;;;;;4921143;29;20071;-65
2022/04/17 05:31:04;;;;;;;19.35;4.13;;;;;;;;;;4921107;29;20059;-65
2022/04/17 05:33:33;;;;;;;18.33;3.55;;;;;;;;;;4920800;29;20075;-65
2022/04/17 05:36:04;;;;;;;14.82;3.38;;;;;;;;;;4920658;29;20511;-64
2022/04/17 05:38:33;;;;;;;13.73;3.28;;;;;;;;;;4924310;29;20510;-64
2022/04/17 05:41:01;;;;;;;10.07;3.22;;;;;;;;;;4938865;29;20063;-65
2022/04/17 05:43:30;;;;;;;7.40;3.45;;;;;;;;;;4938537;29;20087;-64
2022/04/17 05:45:59;;;;;;;11.52;3.65;;;;;;;;;;4938875;29;20103;-64
2022/04/17 05:48:28;;;;;;;13.52;3.33;;;;;;;;;;4934284;29;20056;-64
2022/04/17 05:50:56;;;;;;;16.75;3.13;;;;;;;;;;4927627;29;20496;-63
2022/04/17 05:53:24;;;;;;;12.10;3.38;;;;;;;;;;4924359;29;20095;-65
2022/04/17 05:55:53;;;;;;;11.23;3.72;;;;;;;;;;4923156;29;20437;-66
2022/04/17 05:58:23;;;;;;;9.40;2.88;;;;;;;;;;4921775;29;20536;-65
2022/04/17 06:00:53;;;;;;;13.80;4.05;;;;;;;;;;4925308;29;20051;-65
2022/04/17 06:03:22;;;;;;;7.47;3.55;;;;;;;;;;4925373;29;20048;-65
2022/04/17 06:05:51;;;;;;;12.15;2.65;;;;;;;;;;4927460;29;20056;-65
2022/04/17 06:08:21;;;;;;;6.72;2.88;;;;;;;;;;4921740;29;20052;-66
2022/04/17 06:10:50;;;;;;;7.80;3.38;;;;;;;;;;4918755;29;20048;-66
2022/04/17 06:13:20;;;;;;;7.50;2.60;;;;;;;;;;4920374;29;20058;-65
2022/04/17 06:15:50;;;;;;;3.47;2.55;;;;;;;;;;4927284;29;20116;-64
2022/04/17 06:18:20;;;;;;;9.55;2.75;;;;;;;;;;4919025;29;20090;-67
2022/04/17 06:20:49;;;;;;;5.97;3.08;;;;;;;;;;4927073;29;20052;-66
2022/04/17 06:23:18;;;;;;;7.65;3.22;;;;;;;;;;4926797;29;20412;-66
2022/04/17 06:25:47;;;;;;;5.72;2.28;;;;;;;;;;4919887;29;20422;-65
2022/04/17 06:28:16;;;;;;;9.30;4.35;;;;;;;;;;4920050;29;20095;-68
2022/04/17 06:30:46;;;;;;;5.85;2.63;;;;;;;;;;4920365;29;20044;-68
2022/04/17 06:33:15;;;;;;;6.45;3.38;;;;;;;;;;4925368;29;20090;-67
2022/04/17 06:35:45;;;;;;;4.70;3.22;;;;;;;;;;4920386;29;20075;-70
2022/04/17 06:38:15;;;;;;;6.47;3.47;;;;;;;;;;4923271;29;20508;-69
2022/04/17 06:40:44;;;;;;;4.20;3.67;;;;;;;;;;4917461;29;20076;-66
2022/04/17 06:43:13;;;;;;;10.45;3.42;;;;;;;;;;4919656;29;20056;-66
2022/04/17 06:45:42;;;;;;;5.75;2.78;;;;;;;;;;4926911;29;20884;-65
2022/04/17 06:48:15;;;;;;;6.18;3.33;;;;;;;;;;4920007;29;20561;-66
2022/04/17 06:50:46;;;;;;;5.57;2.67;;;;;;;;;;4920686;29;20060;-64
2022/04/17 06:53:16;;;;;;;5.82;2.60;;;;;;;;;;4919774;29;20051;-64
2022/04/17 06:55:47;;;;;;;8.02;2.88;;;;;;;;;;4922610;29;20063;-62
2022/04/17 06:58:17;;;;;;;6.10;4.05;;;;;;;;;;4920755;29;20083;-63
2022/04/17 07:00:50;;;;;;;4.85;2.38;;;;;;;;;;4918829;29;20052;-62
2022/04/17 07:03:21;;;;;;;8.77;3.05;;;;;;;;;;4917585;29;20060;-62
2022/04/17 07:05:50;;;;;;;3.88;2.65;;;;;;;;;;4918679;29;20123;-60
2022/04/17 07:08:20;;;;;;;3.65;2.90;;;;;;;;;;4920930;29;20456;-62
2022/04/17 07:10:49;;;;;;;5.45;3.03;;;;;;;;;;4922073;29;20076;-63
2022/04/17 07:13:19;;;;;;;7.03;3.03;;;;;;;;;;4920366;29;20072;-60
2022/04/17 07:15:48;;;;;;;4.88;2.72;;;;;;;;;;4919768;29;20135;-61
2022/04/17 07:18:16;;;;;;;7.30;2.60;;;;;;;;;;4929478;29;20098;-62
2022/04/17 07:20:45;;;;;;;3.78;2.67;;;;;;;;;;4920422;29;20044;-63
2022/04/17 07:23:14;;;;;;;2.70;2.13;;;;;;;;;;4921959;29;20075;-61
2022/04/17 07:25:44;;;;;;;5.55;3.28;;;;;;;;;;4922963;29;20052;-60
2022/04/17 07:28:14;;;;;;;6.20;2.42;;;;;;;;;;4920620;29;20052;-61
2022/04/17 07:30:44;;;;;;;7.07;2.67;;;;;;;;;;4920298;29;20067;-61
2022/04/17 07:33:14;;;;;;;8.45;2.88;;;;;;;;;;4918335;29;20445;-66
2022/04/17 07:35:44;;;;;;;3.85;3.00;;;;;;;;;;4926107;29;20047;-62
2022/04/17 07:38:12;;;;;;;6.65;2.50;;;;;;;;;;4933947;29;20062;-64
2022/04/17 07:40:42;;;;;;;5.93;2.40;;;;;;;;;;4935995;29;20067;-64
2022/04/17 07:43:12;;;;;;;9.43;2.25;;;;;;;;;;4935701;29;20057;-59
2022/04/17 07:45:42;;;;;;;3.95;2.13;;;;;;;;;;4931411;29;20052;-61
2022/04/17 07:48:11;;;;;;;2.95;2.33;;;;;;;;;;4933694;29;20488;-60
2022/04/17 07:50:41;;;;;;;2.47;1.95;;;;;;;;;;4934161;29;20087;-62
2022/04/17 07:53:11;;;;;;;4.00;3.13;;;;;;;;;;4934370;29;20523;-60
2022/04/17 07:55:40;;;;;;;5.88;3.88;;;;;;;;;;4932387;29;20055;-61
2022/04/17 07:58:16;;;;;;;6.22;2.47;;;;;;;;;;4930652;29;20074;-63
2022/04/17 08:00:47;;;;;;;8.73;2.60;;;;;;;;;;4936038;29;20407;-60
2022/04/17 08:06:07;;;;;;;3.90;2.72;;;;;;;;;;4916891;29;20076;-61
2022/04/17 08:08:37;;;;;;;7.95;2.35;;;;;;;;;;4920978;29;20535;-61
2022/04/17 08:11:09;;;;;;;9.13;2.88;;;;;;;;;;4923958;29;20060;-59
2022/04/17 08:13:39;;;;;;;3.97;2.63;;;;;;;;;;4917401;29;20384;-61
2022/04/17 08:16:09;;;;;;;4.20;2.28;;;;;;;;;;4920690;29;20070;-60
2022/04/17 08:18:42;;;;;;;6.78;2.53;;;;;;;;;;4932635;29;20159;-60
2022/04/17 08:21:11;;;;;;;4.78;3.03;;;;;;;;;;4934620;29;20071;-60
2022/04/17 08:23:42;;;;;;;5.95;2.58;;;;;;;;;;4936577;29;20540;-62
2022/04/17 08:26:11;;;;;;;4.53;2.40;;;;;;;;;;4939847;29;20054;-61
2022/04/17 08:28:41;;;;;;;5.55;2.53;;;;;;;;;;4937970;29;20503;-62
2022/04/17 08:31:11;;;;;;;3.80;2.28;;;;;;;;;;4936545;29;20103;-61
2022/04/17 08:33:39;;;;;;;5.95;2.75;;;;;;;;;;4937306;29;20043;-59
2022/04/17 08:36:07;;;;;;;3.83;2.75;;;;;;;;;;4934822;29;20403;-60
2022/04/17 08:38:38;;;;;;;5.75;2.85;;;;;;;;;;4930734;29;20082;-60
2022/04/17 08:41:07;;;;;;;3.10;2.30;;;;;;;;;;4940124;29;20036;-59
2022/04/17 08:43:36;;;;;;;3.35;2.13;;;;;;;;;;4935263;29;20040;-59
2022/04/17 08:46:05;;;;;;;7.78;2.83;;;;;;;;;;4936663;29;20483;-58
2022/04/17 08:48:35;;;;;;;10.60;2.50;;;;;;;;;;4939026;29;20056;-58
2022/04/17 08:51:07;;;;;;;11.80;3.10;;;;;;;;;;4936448;29;20078;-58
2022/04/17 08:53:39;;;;;;;6.82;3.85;;;;;;;;;;4931072;29;20059;-59
2022/04/17 08:56:08;;;;;;;2.85;2.35;;;;;;;;;;4935608;29;20085;-60
2022/04/17 08:58:38;;;;;;;6.82;3.67;;;;;;;;;;4937867;29;20408;-63
2022/04/17 09:01:12;;;;;;;3.50;2.67;;;;;;;;;;4935012;29;20067;-65
2022/04/17 09:03:40;;;;;;;5.95;2.50;;;;;;;;;;4933974;29;20065;-59
2022/04/17 09:06:11;;;;;;;4.20;2.50;;;;;;;;;;4937418;29;20059;-59
2022/04/17 09:09:06;;;;;;;;;;;;;;;;;;4938163;29;20541;-59
2022/04/17 09:11:35;;;;;;;11.40;3.25;;;;;;;;;;4933410;29;19930;-60
2022/04/17 09:14:08;;;;;;;5.15;3.13;;;;;;;;;;4936771;29;20070;-60
2022/04/17 09:16:42;;;;;;;4.53;2.10;;;;;;;;;;4938080;29;20086;-60
2022/04/17 09:19:15;;;;;;;2.97;2.58;;;;;;;;;;4933175;29;20087;-60
2022/04/17 09:21:45;;;;;;;2.92;2.50;;;;;;;;;;4935303;29;20051;-61
2022/04/17 09:24:19;;;;;;;6.43;2.05;;;;;;;;;;4934860;29;20086;-59
2022/04/17 09:26:58;;;;;;;;;;;;;;;;;;4936159;29;20052;-63
2022/04/17 09:29:29;;;;;;;6.72;2.25;;;;;;;;;;4937285;29;20507;-59
2022/04/17 09:31:59;;;;;;;3.75;2.65;;;;;;;;;;4938050;29;20048;-59
2022/04/17 09:34:52;;;;;;;4.25;3.15;;;;;;;;;;4937517;29;20467;-57
2022/04/17 09:37:24;;;;;;;3.55;2.05;;;;;;;;;;4936244;29;20119;-58
2022/04/17 09:40:08;;;;;;;6.60;2.30;;;;;;;;;;4937011;29;20074;-58
2022/04/17 09:42:38;;;;;;;3.95;2.28;;;;;;;;;;4933372;29;20059;-58
2022/04/17 09:45:08;;;;;;;5.10;2.70;;;;;;;;;;4937012;29;20080;-58
2022/04/17 09:47:36;;;;;;;5.50;2.40;;;;;;;;;;4935546;29;20039;-59
2022/04/17 09:50:06;;;;;;;5.25;2.70;;;;;;;;;;4937163;29;20043;-59
2022/04/17 09:52:44;;;;;;;5.57;3.25;;;;;;;;;;4930847;29;20127;-59
2022/04/17 09:55:13;;;;;;;8.65;3.47;;;;;;;;;;4936015;29;20050;-60
2022/04/17 09:57:43;;;;;;;6.95;3.10;;;;;;;;;;4936980;29;20055;-60
2022/04/17 10:00:17;;;;;;;4.47;2.28;;;;;;;;;;4938418;29;20073;-59
2022/04/17 10:02:47;;;;;;;10.18;3.15;;;;;;;;;;4937614;29;20605;-59
2022/04/17 10:05:18;;;;;;;4.28;2.10;;;;;;;;;;4938407;29;20055;-59
2022/04/17 10:07:48;;;;;;;3.17;2.30;;;;;;;;;;4937881;29;20063;-59
2022/04/17 10:10:18;;;;;;;15.25;10.57;;;;;;;;;;4934390;29;20064;-59
2022/04/17 10:12:47;;;;;;;6.97;4.85;;;;;;;;;;4931586;29;20048;-59
2022/04/17 10:15:16;;;;;;;7.65;2.67;;;;;;;;;;4937555;29;20106;-59
2022/04/17 10:17:46;;;;;;;7.72;2.70;;;;;;;;;;4936274;29;20047;-59
2022/04/17 10:20:15;;;;;;;5.60;2.20;;;;;;;;;;4927230;29;20547;-60
2022/04/17 10:22:47;;;;;;;4.43;2.40;;;;;;;;;;4936017;29;20044;-60
2022/04/17 10:25:17;;;;;;;3.90;2.35;;;;;;;;;;4921965;29;20052;-60
2022/04/17 10:27:51;;;;;;;17.33;4.10;;;;;;;;;;4921749;29;20078;-60
2022/04/17 10:30:29;;;;;;;3.05;2.55;;;;;;;;;;4934373;29;20104;-60
2022/04/17 10:33:20;;;;;;;2.45;2.20;;;;;;;;;;4933868;29;20534;-60
2022/04/17 10:36:04;;;;;;;4.00;2.90;;;;;;;;;;4917730;29;20137;-60
2022/04/17 10:39:14;;;;;;;5.88;3.70;;;;;;;;;;4920566;29;20071;-60
2022/04/17 10:42:02;;;;;;;8.68;6.75;;;;;;;;;;4928809;29;20055;-60
2022/04/17 10:44:37;;;;;;;5.68;2.75;;;;;;;;;;4918299;29;20131;-60
2022/04/17 10:47:06;;;;;;;4.63;3.80;;;;;;;;;;4916696;29;20052;-60
2022/04/17 10:49:53;;;;;;;3.55;2.70;;;;;;;;;;4917502;29;20111;-60
2022/04/17 10:52:46;;;;;;;3.70;2.47;;;;;;;;;;4917264;29;20055;-60
2022/04/17 10:55:15;;;;;;;6.85;5.57;;;;;;;;;;4916715;29;20162;-60
2022/04/17 10:57:48;;;;;;;8.77;4.78;;;;;;;;;;4917011;29;20062;-60
2022/04/17 11:00:36;;;;;;;7.88;5.63;;;;;;;;;;4921228;29;20051;-60
2022/04/17 11:03:26;;;;;;;6.97;2.75;;;;;;;;;;4936264;29;20130;-60
2022/04/17 11:06:09;;;;;;;9.68;3.55;;;;;;;;;;4933962;29;20060;-60
2022/04/17 11:08:56;;;;;;;3.72;2.03;;;;;;;;;;4918193;29;20056;-60
2022/04/17 11:11:38;;;;;;;4.95;2.95;;;;;;;;;;4919342;29;20213;-59
2022/04/17 11:14:18;;;;;;;4.57;2.40;;;;;;;;;;4918662;29;20048;-59
2022/04/17 11:16:54;;;;;;;2.97;2.53;;;;;;;;;;4919195;29;20187;-59
2022/04/17 11:19:43;;;;;;;8.32;3.40;;;;;;;;;;4918843;29;20056;-60
2022/04/17 11:22:17;;;;;;;6.95;2.65;;;;;;;;;;4931976;29;20059;-60
2022/04/17 11:24:55;;;;;;;10.77;4.97;;;;;;;;;;4936581;29;20052;-60
2022/04/17 11:27:50;;;;;;;5.07;3.00;;;;;;;;;;4926352;29;20052;-60
2022/04/17 11:30:39;;;;;;;4.30;2.88;;;;;;;;;;4918688;29;20103;-60
2022/04/17 11:33:08;;;;;;;45.15;4.85;;;;;;;;;;4919010;29;20567;-60
2022/04/17 11:35:40;;;;;;;4.47;3.13;;;;;;;;;;4922991;29;20083;-60
2022/04/17 11:38:10;;;;;;;6.03;2.83;;;;;;;;;;4936400;29;20123;-60
2022/04/17 11:40:41;;;;;;;8.75;3.58;;;;;;;;;;4937014;29;20115;-61
2022/04/17 11:43:16;;;;;;;8.35;2.33;;;;;;;;;;4930287;29;20055;-60
2022/04/17 11:45:47;;;;;;;8.65;2.88;;;;;;;;;;4936549;29;20051;-60
2022/04/17 11:48:18;;;;;;;4.18;2.78;;;;;;;;;;4936584;29;20118;-60
2022/04/17 11:50:56;;;;;;;5.35;2.55;;;;;;;;;;4939361;29;20060;-60
2022/04/17 11:53:42;;;;;;;4.97;2.45;;;;;;;;;;4939681;29;20055;-61
2022/04/17 11:56:10;;;;;;;5.25;2.08;;;;;;;;;;4940852;29;20086;-60
2022/04/17 11:58:38;;;;;;;8.50;2.67;;;;;;;;;;4940329;29;20056;-60
2022/04/17 12:01:10;;;;;;;4.50;1.95;;;;;;;;;;4940770;29;20052;-60
2022/04/17 12:03:46;;;;;;;3.72;2.30;;;;;;;;;;4921659;29;20052;-60
2022/04/17 12:06:16;;;;;;;5.10;1.92;;;;;;;;;;4922526;29;20070;-60
2022/04/17 12:08:48;;;;;;;3.97;2.25;;;;;;;;;;4922216;29;20060;-60
2022/04/17 12:11:19;;;;;;;4.18;2.00;;;;;;;;;;4929880;29;20054;-60
2022/04/17 12:13:55;;;;;;;4.32;2.80;;;;;;;;;;4923039;29;20060;-60
2022/04/17 12:16:22;;;;;;;3.83;3.22;;;;;;;;;;4921913;29;20048;-61
2022/04/17 12:18:55;;;;;;;4.93;2.28;;;;;;;;;;4921667;29;20048;-60
2022/04/17 12:21:29;;;;;;;3.17;1.77;;;;;;;;;;4921854;29;20056;-60
2022/04/17 12:23:58;;;;;;;;;;;;;;;;;;4922517;29;20055;-60
2022/04/17 12:26:26;;;;;;;4.40;3.15;;;;;;;;;;4921689;29;19926;-60
2022/04/17 12:28:56;;;;;;;7.20;2.25;;;;;;;;;;4935505;29;20091;-60
2022/04/17 12:31:26;;;;;;;12.80;1.65;;;;;;;;;;4921380;29;20056;-60
2022/04/17 12:34:29;;;;;;;4.40;2.20;;;;;;;;;;4933724;29;20605;-60
2022/04/17 12:36:57;;;;;;;7.78;2.33;;;;;;;;;;4922779;29;20111;-60
2022/04/17 12:39:32;;;;;;;2.65;1.85;;;;;;;;;;4921728;29;20131;-60
2022/04/17 12:42:16;;;;;;;12.23;2.78;;;;;;;;;;4921290;29;20111;-60
2022/04/17 12:44:47;;;;;;;5.23;1.90;;;;;;;;;;4921647;29;20056;-60
2022/04/17 12:47:16;;;;;;;6.38;2.45;;;;;;;;;;4921109;29;20056;-60
2022/04/17 12:49:45;;;;;;;3.60;1.73;;;;;;;;;;4921630;29;20064;-60
2022/04/17 12:52:22;;;;;;;5.03;2.17;;;;;;;;;;4921317;29;20068;-60
2022/04/17 12:54:51;;;;;;;7.20;2.20;;;;;;;;;;4921153;29;20052;-60
2022/04/17 12:57:21;;;;;;;4.05;1.83;;;;;;;;;;4921637;29;20056;-60
2022/04/17 12:59:53;;;;;;;6.28;2.55;;;;;;;;;;4920909;29;20420;-60
2022/04/17 13:02:24;;;;;;;3.33;1.90;;;;;;;;;;4921065;29;20048;-60
2022/04/17 13:04:54;;;;;;;3.08;2.03;;;;;;;;;;4921042;29;20405;-60
2022/04/17 13:07:21;;;;;;;2.45;2.05;;;;;;;;;;4920863;29;20066;-60
2022/04/17 13:09:53;;;;;;;4.93;2.03;;;;;;;;;;4920830;29;20054;-60
2022/04/17 13:12:39;;;;;;;3.97;1.95;;;;;;;;;;4931517;29;20044;-59
2022/04/17 13:15:11;;;;;;;2.70;1.40;;;;;;;;;;4925372;29;20044;-60
2022/04/17 13:17:47;;;;;;;2.63;1.47;;;;;;;;;;4935558;29;20052;-60
2022/04/17 13:20:19;;;;;;;3.40;2.20;;;;;;;;;;4936489;29;20448;-59
2022/04/17 13:22:49;;;;;;;6.15;1.73;;;;;;;;;;4938615;29;20459;-60
2022/04/17 13:25:19;;;;;;;3.17;1.98;;;;;;;;;;4938667;29;20039;-60
2022/04/17 13:27:47;;;;;;;5.93;2.75;;;;;;;;;;4936731;29;20052;-60
2022/04/17 13:30:20;;;;;;;2.22;1.70;;;;;;;;;;4938507;29;20144;-60
2022/04/17 13:32:49;;;;;;;8.43;2.15;;;;;;;;;;4924317;29;20080;-60
2022/04/17 13:35:17;;;;;;;2.40;1.70;;;;;;;;;;4930553;29;20123;-60
2022/04/17 13:40:38;;;;;;;5.28;1.70;;;;;;;;;;4932532;29;20203;-60
2022/04/17 13:43:08;;;;;;;3.90;1.60;;;;;;;;;;4936912;29;20071;-60
2022/04/17 13:45:38;;;;;;;4.93;2.58;;;;;;;;;;4936954;29;20103;-60
2022/04/17 13:48:08;;;;;;;3.00;1.77;;;;;;;;;;4932538;29;20055;-60
2022/04/17 13:50:38;;;;;;;6.93;1.75;;;;;;;;;;4919844;29;20063;-61
2022/04/17 13:53:07;;;;;;;11.10;2.47;;;;;;;;;;4935983;29;20063;-60
2022/04/17 13:55:36;;;;;;;4.68;2.45;;;;;;;;;;4938236;29;20059;-61
2022/04/17 13:58:07;;;;;;;4.90;1.83;;;;;;;;;;4919653;29;20067;-61
2022/04/17 14:00:34;;;;;;;2.50;1.65;;;;;;;;;;4919957;29;20048;-61
2022/04/17 14:03:04;;;;;;;3.60;1.80;;;;;;;;;;4919926;29;20048;-61
2022/04/17 14:05:33;;;;;;;2.78;1.98;;;;;;;;;;4919430;29;20114;-61
2022/04/17 14:08:03;;;;;;;5.93;2.38;;;;;;;;;;4932524;29;20055;-61
2022/04/17 14:10:32;;;;;;;3.47;1.90;;;;;;;;;;4919971;29;20496;-61
2022/04/17 14:13:02;;;;;;;4.43;1.65;;;;;;;;;;4919711;29;20489;-61
2022/04/17 14:15:32;;;;;;;2.08;1.88;;;;;;;;;;4919872;29;20060;-61
2022/04/17 14:18:01;;;;;;;4.50;1.90;;;;;;;;;;4920081;29;20134;-61
2022/04/17 14:20:31;;;;;;;4.40;2.38;;;;;;;;;;4919739;29;20061;-60
2022/04/17 14:23:00;;;;;;;5.60;1.70;;;;;;;;;;4919732;29;20052;-60
2022/04/17 14:25:30;;;;;;;5.70;1.75;;;;;;;;;;4919487;29;20500;-60
2022/04/17 14:28:00;;;;;;;4.32;2.58;;;;;;;;;;4927027;29;20052;-60
2022/04/17 14:30:30;;;;;;;2.85;1.70;;;;;;;;;;4938091;29;20060;-60
2022/04/17 14:33:05;;;;;;;5.53;1.77;;;;;;;;;;4937538;29;20047;-61
2022/04/17 14:35:34;;;;;;;3.50;2.00;;;;;;;;;;4937647;29;20455;-60
2022/04/17 14:38:02;;;;;;;3.33;1.75;;;;;;;;;;4937334;29;20452;-60
2022/04/17 14:40:31;;;;;;;2.38;1.92;;;;;;;;;;4938003;29;20047;-60
2022/04/17 14:43:00;;;;;;;3.58;1.80;;;;;;;;;;4937420;29;20066;-60
2022/04/17 14:45:29;;;;;;;1.60;1.50;;;;;;;;;;4937255;29;20052;-61
2022/04/17 14:47:59;;;;;;;7.03;2.85;;;;;;;;;;4937505;29;20070;-60
2022/04/17 14:50:28;;;;;;;4.10;2.72;;;;;;;;;;4937316;29;20476;-61
2022/04/17 14:53:04;;;;;;;5.38;1.80;;;;;;;;;;4937304;29;20040;-61
2022/04/17 14:55:33;;;;;;;2.40;2.20;;;;;;;;;;4937144;29;20075;-61
2022/04/17 14:58:08;;;;;;;4.60;1.85;;;;;;;;;;4937161;29;20055;-61
2022/04/17 15:00:37;;;;;;;;;;;;;;;;;;4937654;29;20175;-60
2022/04/17 15:03:07;;;;;;;9.23;2.20;;;;;;;;;;4935765;29;19924;-61
2022/04/17 15:05:36;;;;;;;5.63;2.17;;;;;;;;;;4929071;29;20059;-61
2022/04/17 15:08:06;;;;;;;2.50;1.80;;;;;;;;;;4919235;29;20059;-61
2022/04/17 15:10:36;;;;;;;5.93;2.30;;;;;;;;;;4918669;29;20056;-61
2022/04/17 15:13:09;;;;;;;7.72;2.00;;;;;;;;;;4918852;29;20485;-61
2022/04/17 15:15:39;;;;;;;1.95;1.77;;;;;;;;;;4917674;29;20056;-61
2022/04/17 15:18:08;;;;;;;2.60;2.20;;;;;;;;;;4918919;29;20059;-61
2022/04/17 15:20:37;;;;;;;2.28;2.08;;;;;;;;;;4918356;29;20080;-61
2022/04/17 15:23:06;;;;;;;5.43;2.47;;;;;;;;;;4918975;29;20059;-61
2022/04/17 15:25:36;;;;;;;5.82;2.60;;;;;;;;;;4935492;29;20519;-61
2022/04/17 15:28:05;;;;;;;5.47;2.03;;;;;;;;;;4936732;29;20083;-61
2022/04/17 15:30:34;;;;;;;4.10;2.78;;;;;;;;;;4937097;29;20059;-60